sensor_id;sensor_type;location;lat;lon;timestamp;P1;durP1;ratioP1;P2;durP2;ratioP2
13443;SDS011;6794;59.218;18.218;2023-12-20T00:01:35;14.07;;;2.85;;
13443;SDS011;6794;59.218;18.218;2023-12-20T00:04:01;19.43;;;2.60;;
13443;SDS011;6794;59.218;18.218;2023-12-20T00:06:27;10.37;;;3.07;;
13443;SDS011;6794;59.218;18.218;2023-12-20T00:08:53;15.77;;;2.87;;
13443;SDS011;6794;59.218;18.218;2023-12-20T00:11:19;8.90;;;2.33;;
13443;SDS011;6794;59.218;18.218;2023-12-20T00:13:45;12.97;;;2.40;;
13443;SDS011;6794;59.218;18.218;2023-12-20T00:16:11;10.33;;;2.00;;
13443;SDS011;6794;59.218;18.218;2023-12-20T00:18:37;15.20;;;2.75;;
13443;SDS011;6794;59.218;18.218;2023-12-20T00:21:03;17.03;;;3.07;;
13443;SDS011;6794;59.218;18.218;2023-12-20T00:23:29;19.67;;;2.60;;
13443;SDS011;6794;59.218;18.218;2023-12-20T00:25:55;13.90;;;2.30;;
13443;SDS011;6794;59.218;18.218;2023-12-20T00:28:21;17.73;;;2.60;;
13443;SDS011;6794;59.218;18.218;2023-12-20T00:30:48;20.33;;;2.33;;
13443;SDS011;6794;59.218;18.218;2023-12-20T00:33:14;10.90;;;1.90;;
13443;SDS011;6794;59.218;18.218;2023-12-20T00:35:40;20.07;;;2.67;;
13443;SDS011;6794;59.218;18.218;2023-12-20T00:38:06;14.50;;;2.70;;
13443;SDS011;6794;59.218;18.218;2023-12-20T00:40:33;18.20;;;2.87;;
13443;SDS011;6794;59.218;18.218;2023-12-20T00:42:59;14.00;;;2.43;;
13443;SDS011;6794;59.218;18.218;2023-12-20T00:45:25;15.40;;;2.80;;
13443;SDS011;6794;59.218;18.218;2023-12-20T00:47:51;11.07;;;1.80;;
13443;SDS011;6794;59.218;18.218;2023-12-20T00:50:17;10.87;;;2.07;;
13443;SDS011;6794;59.218;18.218;2023-12-20T00:52:43;11.97;;;2.03;;
13443;SDS011;6794;59.218;18.218;2023-12-20T00:55:09;14.10;;;2.57;;
13443;SDS011;6794;59.218;18.218;2023-12-20T00:57:35;18.75;;;3.40;;
13443;SDS011;6794;59.218;18.218;2023-12-20T01:00:01;15.30;;;2.90;;
13443;SDS011;6794;59.218;18.218;2023-12-20T01:02:28;5.77;;;1.90;;
13443;SDS011;6794;59.218;18.218;2023-12-20T01:04:54;16.60;;;2.60;;
13443;SDS011;6794;59.218;18.218;2023-12-20T01:07:20;14.47;;;2.33;;
13443;SDS011;6794;59.218;18.218;2023-12-20T01:09:46;13.17;;;2.63;;
13443;SDS011;6794;59.218;18.218;2023-12-20T01:12:12;13.50;;;2.33;;
13443;SDS011;6794;59.218;18.218;2023-12-20T01:14:38;15.70;;;2.67;;
13443;SDS011;6794;59.218;18.218;2023-12-20T01:17:04;21.60;;;2.50;;
13443;SDS011;6794;59.218;18.218;2023-12-20T01:19:30;18.70;;;3.00;;
13443;SDS011;6794;59.218;18.218;2023-12-20T01:21:56;11.70;;;3.47;;
13443;SDS011;6794;59.218;18.218;2023-12-20T01:24:22;10.07;;;2.67;;
13443;SDS011;6794;59.218;18.218;2023-12-20T01:26:48;13.43;;;2.60;;
13443;SDS011;6794;59.218;18.218;2023-12-20T01:29:14;11.77;;;2.20;;
13443;SDS011;6794;59.218;18.218;2023-12-20T01:31:41;9.77;;;1.87;;
13443;SDS011;6794;59.218;18.218;2023-12-20T01:34:07;13.20;;;2.85;;
13443;SDS011;6794;59.218;18.218;2023-12-20T01:36:33;17.97;;;3.00;;
13443;SDS011;6794;59.218;18.218;2023-12-20T01:38:59;16.67;;;2.53;;
13443;SDS011;6794;59.218;18.218;2023-12-20T01:41:25;14.13;;;2.93;;
13443;SDS011;6794;59.218;18.218;2023-12-20T01:43:51;14.83;;;2.33;;
13443;SDS011;6794;59.218;18.218;2023-12-20T01:46:18;10.57;;;2.20;;
13443;SDS011;6794;59.218;18.218;2023-12-20T01:48:44;14.73;;;2.40;;
13443;SDS011;6794;59.218;18.218;2023-12-20T01:51:10;12.37;;;2.70;;
13443;SDS011;6794;59.218;18.218;2023-12-20T01:53:36;20.73;;;4.15;;
13443;SDS011;6794;59.218;18.218;2023-12-20T01:56:03;15.90;;;2.60;;
13443;SDS011;6794;59.218;18.218;2023-12-20T01:58:30;17.10;;;2.67;;
13443;SDS011;6794;59.218;18.218;2023-12-20T02:00:56;12.60;;;3.27;;
13443;SDS011;6794;59.218;18.218;2023-12-20T02:03:23;14.80;;;2.40;;
13443;SDS011;6794;59.218;18.218;2023-12-20T02:05:49;23.67;;;3.20;;
13443;SDS011;6794;59.218;18.218;2023-12-20T02:08:16;14.70;;;2.50;;
13443;SDS011;6794;59.218;18.218;2023-12-20T02:10:42;13.80;;;2.73;;
13443;SDS011;6794;59.218;18.218;2023-12-20T02:13:08;17.17;;;3.97;;
13443;SDS011;6794;59.218;18.218;2023-12-20T02:15:34;14.17;;;2.90;;
13443;SDS011;6794;59.218;18.218;2023-12-20T02:18:06;18.93;;;3.63;;
13443;SDS011;6794;59.218;18.218;2023-12-20T02:20:32;18.40;;;3.50;;
13443;SDS011;6794;59.218;18.218;2023-12-20T02:22:58;16.60;;;3.07;;
13443;SDS011;6794;59.218;18.218;2023-12-20T02:25:24;16.17;;;3.23;;
13443;SDS011;6794;59.218;18.218;2023-12-20T02:27:50;8.37;;;2.73;;
13443;SDS011;6794;59.218;18.218;2023-12-20T02:30:17;12.55;;;2.95;;
13443;SDS011;6794;59.218;18.218;2023-12-20T02:32:43;9.10;;;3.00;;
13443;SDS011;6794;59.218;18.218;2023-12-20T02:35:09;14.97;;;2.90;;
13443;SDS011;6794;59.218;18.218;2023-12-20T02:37:35;11.37;;;2.70;;
13443;SDS011;6794;59.218;18.218;2023-12-20T02:40:01;10.87;;;2.70;;
13443;SDS011;6794;59.218;18.218;2023-12-20T02:42:29;19.50;;;2.97;;
13443;SDS011;6794;59.218;18.218;2023-12-20T02:44:55;18.37;;;2.90;;
13443;SDS011;6794;59.218;18.218;2023-12-20T02:47:21;15.30;;;3.10;;
13443;SDS011;6794;59.218;18.218;2023-12-20T02:49:47;16.48;;;3.83;;
13443;SDS011;6794;59.218;18.218;2023-12-20T02:52:14;13.07;;;3.07;;
13443;SDS011;6794;59.218;18.218;2023-12-20T02:54:40;15.30;;;3.30;;
13443;SDS011;6794;59.218;18.218;2023-12-20T02:57:06;19.10;;;3.90;;
13443;SDS011;6794;59.218;18.218;2023-12-20T02:59:32;11.83;;;3.10;;
13443;SDS011;6794;59.218;18.218;2023-12-20T03:01:58;20.60;;;4.27;;
13443;SDS011;6794;59.218;18.218;2023-12-20T03:04:24;16.97;;;3.23;;
13443;SDS011;6794;59.218;18.218;2023-12-20T03:06:50;13.70;;;3.73;;
13443;SDS011;6794;59.218;18.218;2023-12-20T03:09:16;13.63;;;3.43;;
13443;SDS011;6794;59.218;18.218;2023-12-20T03:11:42;13.73;;;3.70;;
13443;SDS011;6794;59.218;18.218;2023-12-20T03:14:08;17.43;;;2.90;;
13443;SDS011;6794;59.218;18.218;2023-12-20T03:16:34;11.97;;;2.77;;
13443;SDS011;6794;59.218;18.218;2023-12-20T03:19:00;12.90;;;2.70;;
13443;SDS011;6794;59.218;18.218;2023-12-20T03:21:27;13.40;;;2.97;;
13443;SDS011;6794;59.218;18.218;2023-12-20T03:23:53;21.60;;;2.90;;
13443;SDS011;6794;59.218;18.218;2023-12-20T03:26:19;15.05;;;3.08;;
13443;SDS011;6794;59.218;18.218;2023-12-20T03:28:45;8.70;;;2.20;;
13443;SDS011;6794;59.218;18.218;2023-12-20T03:31:11;14.60;;;2.50;;
13443;SDS011;6794;59.218;18.218;2023-12-20T03:33:37;16.03;;;2.90;;
13443;SDS011;6794;59.218;18.218;2023-12-20T03:36:03;15.67;;;2.83;;
13443;SDS011;6794;59.218;18.218;2023-12-20T03:38:29;8.10;;;1.90;;
13443;SDS011;6794;59.218;18.218;2023-12-20T03:40:55;19.43;;;2.87;;
13443;SDS011;6794;59.218;18.218;2023-12-20T03:43:21;14.90;;;2.67;;
13443;SDS011;6794;59.218;18.218;2023-12-20T03:45:47;14.85;;;2.60;;
13443;SDS011;6794;59.218;18.218;2023-12-20T03:48:13;10.40;;;2.10;;
13443;SDS011;6794;59.218;18.218;2023-12-20T03:50:39;10.23;;;2.33;;
13443;SDS011;6794;59.218;18.218;2023-12-20T03:53:05;18.27;;;3.30;;
13443;SDS011;6794;59.218;18.218;2023-12-20T03:55:31;8.90;;;2.10;;
13443;SDS011;6794;59.218;18.218;2023-12-20T03:57:57;11.77;;;2.27;;
13443;SDS011;6794;59.218;18.218;2023-12-20T04:00:23;14.13;;;2.37;;
13443;SDS011;6794;59.218;18.218;2023-12-20T04:02:49;12.73;;;2.80;;
13443;SDS011;6794;59.218;18.218;2023-12-20T04:05:15;11.48;;;2.80;;
13443;SDS011;6794;59.218;18.218;2023-12-20T04:07:41;10.73;;;2.33;;
13443;SDS011;6794;59.218;18.218;2023-12-20T04:10:08;12.07;;;2.07;;
13443;SDS011;6794;59.218;18.218;2023-12-20T04:12:35;10.90;;;3.03;;
13443;SDS011;6794;59.218;18.218;2023-12-20T04:15:01;11.37;;;2.00;;
13443;SDS011;6794;59.218;18.218;2023-12-20T04:17:33;7.13;;;2.60;;
13443;SDS011;6794;59.218;18.218;2023-12-20T04:19:59;12.80;;;2.57;;
13443;SDS011;6794;59.218;18.218;2023-12-20T04:22:25;8.97;;;2.37;;
13443;SDS011;6794;59.218;18.218;2023-12-20T04:24:52;11.30;;;3.07;;
13443;SDS011;6794;59.218;18.218;2023-12-20T04:27:18;9.47;;;2.57;;
13443;SDS011;6794;59.218;18.218;2023-12-20T04:29:44;8.17;;;2.00;;
13443;SDS011;6794;59.218;18.218;2023-12-20T04:32:10;11.03;;;3.23;;
13443;SDS011;6794;59.218;18.218;2023-12-20T04:34:36;11.03;;;2.80;;
13443;SDS011;6794;59.218;18.218;2023-12-20T04:37:02;13.97;;;2.33;;
13443;SDS011;6794;59.218;18.218;2023-12-20T04:39:28;11.53;;;2.30;;
13443;SDS011;6794;59.218;18.218;2023-12-20T04:41:54;10.17;;;2.33;;
13443;SDS011;6794;59.218;18.218;2023-12-20T04:44:20;17.13;;;3.65;;
13443;SDS011;6794;59.218;18.218;2023-12-20T04:46:46;10.97;;;2.43;;
13443;SDS011;6794;59.218;18.218;2023-12-20T04:49:12;9.83;;;2.63;;
13443;SDS011;6794;59.218;18.218;2023-12-20T04:51:38;10.50;;;2.83;;
13443;SDS011;6794;59.218;18.218;2023-12-20T04:54:04;13.23;;;3.03;;
13443;SDS011;6794;59.218;18.218;2023-12-20T04:56:30;7.07;;;2.20;;
13443;SDS011;6794;59.218;18.218;2023-12-20T04:58:56;6.67;;;2.47;;
13443;SDS011;6794;59.218;18.218;2023-12-20T05:01:23;16.60;;;2.70;;
13443;SDS011;6794;59.218;18.218;2023-12-20T05:03:49;12.77;;;3.35;;
13443;SDS011;6794;59.218;18.218;2023-12-20T05:06:15;10.20;;;2.50;;
13443;SDS011;6794;59.218;18.218;2023-12-20T05:08:41;8.00;;;2.67;;
13443;SDS011;6794;59.218;18.218;2023-12-20T05:11:07;11.87;;;2.77;;
13443;SDS011;6794;59.218;18.218;2023-12-20T05:13:33;12.13;;;2.73;;
13443;SDS011;6794;59.218;18.218;2023-12-20T05:15:59;6.87;;;2.23;;
13443;SDS011;6794;59.218;18.218;2023-12-20T05:18:25;8.70;;;2.83;;
13443;SDS011;6794;59.218;18.218;2023-12-20T05:20:51;9.20;;;2.57;;
13443;SDS011;6794;59.218;18.218;2023-12-20T05:23:17;13.43;;;3.60;;
13443;SDS011;6794;59.218;18.218;2023-12-20T05:25:43;12.63;;;3.07;;
13443;SDS011;6794;59.218;18.218;2023-12-20T05:28:09;5.97;;;2.53;;
13443;SDS011;6794;59.218;18.218;2023-12-20T05:30:35;10.50;;;2.63;;
13443;SDS011;6794;59.218;18.218;2023-12-20T05:33:01;14.60;;;2.77;;
13443;SDS011;6794;59.218;18.218;2023-12-20T05:35:27;10.63;;;2.70;;
13443;SDS011;6794;59.218;18.218;2023-12-20T05:37:53;12.40;;;2.97;;
13443;SDS011;6794;59.218;18.218;2023-12-20T05:40:19;9.97;;;2.40;;
13443;SDS011;6794;59.218;18.218;2023-12-20T05:42:45;11.07;;;3.05;;
13443;SDS011;6794;59.218;18.218;2023-12-20T05:45:11;11.87;;;2.80;;
13443;SDS011;6794;59.218;18.218;2023-12-20T05:47:37;4.77;;;2.30;;
13443;SDS011;6794;59.218;18.218;2023-12-20T05:50:04;9.50;;;2.63;;
13443;SDS011;6794;59.218;18.218;2023-12-20T05:52:30;13.20;;;3.03;;
13443;SDS011;6794;59.218;18.218;2023-12-20T05:54:56;9.67;;;2.53;;
13443;SDS011;6794;59.218;18.218;2023-12-20T05:57:26;11.63;;;2.50;;
13443;SDS011;6794;59.218;18.218;2023-12-20T05:59:52;7.70;;;2.80;;
13443;SDS011;6794;59.218;18.218;2023-12-20T06:02:18;8.82;;;2.92;;
13443;SDS011;6794;59.218;18.218;2023-12-20T06:04:44;11.70;;;3.10;;
13443;SDS011;6794;59.218;18.218;2023-12-20T06:07:13;11.27;;;2.87;;
13443;SDS011;6794;59.218;18.218;2023-12-20T06:09:39;13.27;;;2.93;;
13443;SDS011;6794;59.218;18.218;2023-12-20T06:12:07;15.40;;;2.93;;
13443;SDS011;6794;59.218;18.218;2023-12-20T06:14:33;8.87;;;3.17;;
13443;SDS011;6794;59.218;18.218;2023-12-20T06:17:00;13.70;;;3.40;;
13443;SDS011;6794;59.218;18.218;2023-12-20T06:19:26;10.50;;;3.30;;
13443;SDS011;6794;59.218;18.218;2023-12-20T06:21:52;12.53;;;3.10;;
13443;SDS011;6794;59.218;18.218;2023-12-20T06:24:19;11.93;;;3.57;;
13443;SDS011;6794;59.218;18.218;2023-12-20T06:26:45;11.53;;;3.93;;
13443;SDS011;6794;59.218;18.218;2023-12-20T06:29:11;16.00;;;3.83;;
13443;SDS011;6794;59.218;18.218;2023-12-20T06:31:38;16.03;;;3.50;;
13443;SDS011;6794;59.218;18.218;2023-12-20T06:34:04;13.33;;;3.87;;
13443;SDS011;6794;59.218;18.218;2023-12-20T06:36:30;30.83;;;4.53;;
13443;SDS011;6794;59.218;18.218;2023-12-20T06:38:56;20.93;;;4.10;;
13443;SDS011;6794;59.218;18.218;2023-12-20T06:41:23;26.60;;;4.70;;
13443;SDS011;6794;59.218;18.218;2023-12-20T06:43:52;39.13;;;8.27;;
13443;SDS011;6794;59.218;18.218;2023-12-20T06:46:18;30.23;;;6.00;;
13443;SDS011;6794;59.218;18.218;2023-12-20T06:48:44;22.80;;;5.13;;
13443;SDS011;6794;59.218;18.218;2023-12-20T06:51:11;28.30;;;5.40;;
13443;SDS011;6794;59.218;18.218;2023-12-20T06:53:38;24.10;;;5.67;;
13443;SDS011;6794;59.218;18.218;2023-12-20T06:56:04;40.57;;;5.80;;
13443;SDS011;6794;59.218;18.218;2023-12-20T06:58:30;31.27;;;5.70;;
13443;SDS011;6794;59.218;18.218;2023-12-20T07:00:56;41.27;;;6.00;;
13443;SDS011;6794;59.218;18.218;2023-12-20T07:03:22;36.63;;;7.40;;
13443;SDS011;6794;59.218;18.218;2023-12-20T07:05:48;31.77;;;5.43;;
13443;SDS011;6794;59.218;18.218;2023-12-20T07:08:14;28.27;;;5.43;;
13443;SDS011;6794;59.218;18.218;2023-12-20T07:10:40;30.90;;;5.33;;
13443;SDS011;6794;59.218;18.218;2023-12-20T07:13:06;16.03;;;4.83;;
13443;SDS011;6794;59.218;18.218;2023-12-20T07:15:33;26.87;;;5.67;;
13443;SDS011;6794;59.218;18.218;2023-12-20T07:17:59;25.43;;;5.77;;
13443;SDS011;6794;59.218;18.218;2023-12-20T07:20:25;20.90;;;5.33;;
13443;SDS011;6794;59.218;18.218;2023-12-20T07:22:51;32.80;;;5.50;;
13443;SDS011;6794;59.218;18.218;2023-12-20T07:25:17;23.70;;;5.50;;
13443;SDS011;6794;59.218;18.218;2023-12-20T07:27:45;30.07;;;5.63;;
13443;SDS011;6794;59.218;18.218;2023-12-20T07:30:11;25.80;;;5.27;;
13443;SDS011;6794;59.218;18.218;2023-12-20T07:32:37;19.80;;;5.57;;
13443;SDS011;6794;59.218;18.218;2023-12-20T07:35:03;25.53;;;5.97;;
13443;SDS011;6794;59.218;18.218;2023-12-20T07:37:30;26.23;;;5.40;;
13443;SDS011;6794;59.218;18.218;2023-12-20T07:39:56;19.70;;;5.30;;
13443;SDS011;6794;59.218;18.218;2023-12-20T07:42:22;33.57;;;5.47;;
13443;SDS011;6794;59.218;18.218;2023-12-20T07:44:49;29.27;;;7.97;;
13443;SDS011;6794;59.218;18.218;2023-12-20T07:47:15;18.97;;;5.33;;
13443;SDS011;6794;59.218;18.218;2023-12-20T07:49:46;18.80;;;5.37;;
13443;SDS011;6794;59.218;18.218;2023-12-20T07:52:12;16.07;;;4.47;;
13443;SDS011;6794;59.218;18.218;2023-12-20T07:54:38;11.07;;;4.00;;
13443;SDS011;6794;59.218;18.218;2023-12-20T07:57:04;18.63;;;4.20;;
13443;SDS011;6794;59.218;18.218;2023-12-20T07:59:30;14.67;;;4.30;;
13443;SDS011;6794;59.218;18.218;2023-12-20T08:01:56;13.93;;;3.77;;
13443;SDS011;6794;59.218;18.218;2023-12-20T08:04:22;19.25;;;6.20;;
13443;SDS011;6794;59.218;18.218;2023-12-20T08:06:48;13.03;;;4.33;;
13443;SDS011;6794;59.218;18.218;2023-12-20T08:09:14;15.07;;;3.83;;
13443;SDS011;6794;59.218;18.218;2023-12-20T08:11:44;10.93;;;3.73;;
13443;SDS011;6794;59.218;18.218;2023-12-20T08:14:10;11.97;;;3.77;;
13443;SDS011;6794;59.218;18.218;2023-12-20T08:16:36;10.80;;;4.47;;
13443;SDS011;6794;59.218;18.218;2023-12-20T08:19:02;10.63;;;3.23;;
13443;SDS011;6794;59.218;18.218;2023-12-20T08:21:28;11.00;;;3.23;;
13443;SDS011;6794;59.218;18.218;2023-12-20T08:23:54;14.13;;;5.05;;
13443;SDS011;6794;59.218;18.218;2023-12-20T08:26:21;15.90;;;4.50;;
13443;SDS011;6794;59.218;18.218;2023-12-20T08:28:48;13.60;;;4.00;;
13443;SDS011;6794;59.218;18.218;2023-12-20T08:31:14;11.67;;;3.70;;
13443;SDS011;6794;59.218;18.218;2023-12-20T08:33:41;11.50;;;3.33;;
13443;SDS011;6794;59.218;18.218;2023-12-20T08:36:07;12.10;;;3.90;;
13443;SDS011;6794;59.218;18.218;2023-12-20T08:38:33;17.93;;;3.87;;
13443;SDS011;6794;59.218;18.218;2023-12-20T08:40:59;13.10;;;3.57;;
13443;SDS011;6794;59.218;18.218;2023-12-20T08:43:26;24.35;;;6.38;;
13443;SDS011;6794;59.218;18.218;2023-12-20T08:45:52;17.13;;;4.47;;
13443;SDS011;6794;59.218;18.218;2023-12-20T08:48:18;11.87;;;3.37;;
13443;SDS011;6794;59.218;18.218;2023-12-20T08:50:44;16.93;;;4.13;;
13443;SDS011;6794;59.218;18.218;2023-12-20T08:53:12;17.20;;;3.90;;
13443;SDS011;6794;59.218;18.218;2023-12-20T08:55:38;14.17;;;3.43;;
13443;SDS011;6794;59.218;18.218;2023-12-20T08:58:04;12.87;;;3.23;;
13443;SDS011;6794;59.218;18.218;2023-12-20T09:00:32;11.97;;;3.50;;
13443;SDS011;6794;59.218;18.218;2023-12-20T09:02:58;17.02;;;4.57;;
13443;SDS011;6794;59.218;18.218;2023-12-20T09:05:24;13.53;;;3.27;;
13443;SDS011;6794;59.218;18.218;2023-12-20T09:07:50;12.83;;;3.53;;
13443;SDS011;6794;59.218;18.218;2023-12-20T09:10:16;17.00;;;3.37;;
13443;SDS011;6794;59.218;18.218;2023-12-20T09:12:47;10.13;;;2.63;;
13443;SDS011;6794;59.218;18.218;2023-12-20T09:15:13;9.87;;;2.83;;
13443;SDS011;6794;59.218;18.218;2023-12-20T09:17:39;18.77;;;3.60;;
13443;SDS011;6794;59.218;18.218;2023-12-20T09:20:06;10.60;;;3.07;;
13443;SDS011;6794;59.218;18.218;2023-12-20T09:22:33;9.40;;;3.17;;
13443;SDS011;6794;59.218;18.218;2023-12-20T09:24:59;17.67;;;5.35;;
13443;SDS011;6794;59.218;18.218;2023-12-20T09:27:27;12.23;;;3.67;;
13443;SDS011;6794;59.218;18.218;2023-12-20T09:29:53;11.73;;;3.43;;
13443;SDS011;6794;59.218;18.218;2023-12-20T09:32:19;11.77;;;3.40;;
13443;SDS011;6794;59.218;18.218;2023-12-20T09:34:48;15.53;;;3.07;;
13443;SDS011;6794;59.218;18.218;2023-12-20T09:37:14;10.10;;;2.80;;
13443;SDS011;6794;59.218;18.218;2023-12-20T09:39:40;13.00;;;2.63;;
13443;SDS011;6794;59.218;18.218;2023-12-20T09:42:06;5.60;;;2.80;;
13443;SDS011;6794;59.218;18.218;2023-12-20T09:44:33;14.48;;;5.15;;
13443;SDS011;6794;59.218;18.218;2023-12-20T09:47:05;16.13;;;3.33;;
13443;SDS011;6794;59.218;18.218;2023-12-20T09:49:33;7.53;;;2.70;;
13443;SDS011;6794;59.218;18.218;2023-12-20T09:52:00;11.43;;;2.93;;
13443;SDS011;6794;59.218;18.218;2023-12-20T09:54:26;10.63;;;2.67;;
13443;SDS011;6794;59.218;18.218;2023-12-20T09:56:53;11.97;;;2.97;;
13443;SDS011;6794;59.218;18.218;2023-12-20T09:59:19;13.30;;;2.90;;
13443;SDS011;6794;59.218;18.218;2023-12-20T10:01:45;11.43;;;2.50;;
13443;SDS011;6794;59.218;18.218;2023-12-20T10:04:12;12.20;;;3.40;;
13443;SDS011;6794;59.218;18.218;2023-12-20T10:06:42;13.30;;;3.30;;
13443;SDS011;6794;59.218;18.218;2023-12-20T10:09:11;12.90;;;2.90;;
13443;SDS011;6794;59.218;18.218;2023-12-20T10:11:38;9.93;;;3.00;;
13443;SDS011;6794;59.218;18.218;2023-12-20T10:14:04;10.30;;;2.90;;
13443;SDS011;6794;59.218;18.218;2023-12-20T10:16:31;10.80;;;2.80;;
13443;SDS011;6794;59.218;18.218;2023-12-20T10:18:57;14.17;;;3.00;;
13443;SDS011;6794;59.218;18.218;2023-12-20T10:21:24;15.90;;;2.90;;
13443;SDS011;6794;59.218;18.218;2023-12-20T10:23:51;12.40;;;3.20;;
13443;SDS011;6794;59.218;18.218;2023-12-20T10:26:24;18.10;;;4.30;;
13443;SDS011;6794;59.218;18.218;2023-12-20T10:28:51;14.03;;;2.80;;
13443;SDS011;6794;59.218;18.218;2023-12-20T10:31:30;8.67;;;2.37;;
13443;SDS011;6794;59.218;18.218;2023-12-20T10:33:57;9.23;;;2.23;;
13443;SDS011;6794;59.218;18.218;2023-12-20T10:36:25;14.67;;;2.80;;
13443;SDS011;6794;59.218;18.218;2023-12-20T10:38:52;7.23;;;1.70;;
13443;SDS011;6794;59.218;18.218;2023-12-20T10:41:19;10.47;;;2.03;;
13443;SDS011;6794;59.218;18.218;2023-12-20T10:43:51;14.00;;;3.10;;
13443;SDS011;6794;59.218;18.218;2023-12-20T10:46:18;13.20;;;2.33;;
13443;SDS011;6794;59.218;18.218;2023-12-20T10:48:45;11.82;;;2.70;;
13443;SDS011;6794;59.218;18.218;2023-12-20T10:51:11;12.73;;;3.10;;
13443;SDS011;6794;59.218;18.218;2023-12-20T10:53:37;10.57;;;2.33;;
13443;SDS011;6794;59.218;18.218;2023-12-20T10:56:05;12.00;;;2.50;;
13443;SDS011;6794;59.218;18.218;2023-12-20T10:58:33;10.00;;;2.37;;
13443;SDS011;6794;59.218;18.218;2023-12-20T11:01:00;9.33;;;2.43;;
13443;SDS011;6794;59.218;18.218;2023-12-20T11:03:32;9.23;;;1.90;;
13443;SDS011;6794;59.218;18.218;2023-12-20T11:05:59;10.48;;;2.20;;
13443;SDS011;6794;59.218;18.218;2023-12-20T11:11:07;16.02;;;2.30;;
13443;SDS011;6794;59.218;18.218;2023-12-20T11:13:37;8.80;;;2.10;;
13443;SDS011;6794;59.218;18.218;2023-12-20T11:16:06;10.70;;;2.60;;
13443;SDS011;6794;59.218;18.218;2023-12-20T11:18:33;13.13;;;2.23;;
13443;SDS011;6794;59.218;18.218;2023-12-20T11:21:02;5.95;;;1.92;;
13443;SDS011;6794;59.218;18.218;2023-12-20T11:23:30;7.07;;;1.70;;
13443;SDS011;6794;59.218;18.218;2023-12-20T11:25:58;7.27;;;2.10;;
13443;SDS011;6794;59.218;18.218;2023-12-20T11:28:24;5.65;;;1.80;;
13443;SDS011;6794;59.218;18.218;2023-12-20T11:30:54;7.40;;;1.93;;
13443;SDS011;6794;59.218;18.218;2023-12-20T11:33:21;3.83;;;1.60;;
13443;SDS011;6794;59.218;18.218;2023-12-20T11:35:47;7.93;;;1.63;;
13443;SDS011;6794;59.218;18.218;2023-12-20T11:38:13;10.20;;;1.90;;
13443;SDS011;6794;59.218;18.218;2023-12-20T11:40:41;5.87;;;1.83;;
13443;SDS011;6794;59.218;18.218;2023-12-20T11:43:07;4.03;;;1.30;;
13443;SDS011;6794;59.218;18.218;2023-12-20T11:45:33;5.67;;;1.60;;
13443;SDS011;6794;59.218;18.218;2023-12-20T11:48:00;3.07;;;1.07;;
13443;SDS011;6794;59.218;18.218;2023-12-20T11:50:27;3.10;;;0.90;;
13443;SDS011;6794;59.218;18.218;2023-12-20T11:52:53;5.63;;;1.00;;
13443;SDS011;6794;59.218;18.218;2023-12-20T11:55:20;3.03;;;1.10;;
13443;SDS011;6794;59.218;18.218;2023-12-20T11:57:46;1.47;;;0.90;;
13443;SDS011;6794;59.218;18.218;2023-12-20T12:00:13;5.10;;;1.07;;
13443;SDS011;6794;59.218;18.218;2023-12-20T12:02:39;2.63;;;1.10;;
13443;SDS011;6794;59.218;18.218;2023-12-20T12:05:06;2.03;;;0.80;;
13443;SDS011;6794;59.218;18.218;2023-12-20T12:07:33;3.65;;;1.30;;
13443;SDS011;6794;59.218;18.218;2023-12-20T12:09:59;2.90;;;1.07;;
13443;SDS011;6794;59.218;18.218;2023-12-20T12:12:25;2.00;;;0.90;;
13443;SDS011;6794;59.218;18.218;2023-12-20T12:14:53;2.27;;;1.10;;
13443;SDS011;6794;59.218;18.218;2023-12-20T12:17:19;0.90;;;0.70;;
13443;SDS011;6794;59.218;18.218;2023-12-20T12:19:45;2.72;;;0.93;;
13443;SDS011;6794;59.218;18.218;2023-12-20T12:22:12;2.80;;;0.80;;
13443;SDS011;6794;59.218;18.218;2023-12-20T12:24:48;2.00;;;0.70;;
13443;SDS011;6794;59.218;18.218;2023-12-20T12:27:14;4.67;;;0.90;;
13443;SDS011;6794;59.218;18.218;2023-12-20T12:29:40;3.75;;;1.00;;
13443;SDS011;6794;59.218;18.218;2023-12-20T12:32:08;2.97;;;1.03;;
13443;SDS011;6794;59.218;18.218;2023-12-20T12:34:34;4.40;;;1.00;;
13443;SDS011;6794;59.218;18.218;2023-12-20T12:37:00;2.00;;;0.90;;
13443;SDS011;6794;59.218;18.218;2023-12-20T12:39:26;4.38;;;1.23;;
13443;SDS011;6794;59.218;18.218;2023-12-20T12:41:54;1.70;;;1.23;;
13443;SDS011;6794;59.218;18.218;2023-12-20T12:44:21;3.87;;;0.80;;
13443;SDS011;6794;59.218;18.218;2023-12-20T12:46:48;1.50;;;0.90;;
13443;SDS011;6794;59.218;18.218;2023-12-20T12:49:16;3.25;;;0.90;;
13443;SDS011;6794;59.218;18.218;2023-12-20T12:51:42;3.20;;;1.10;;
13443;SDS011;6794;59.218;18.218;2023-12-20T12:54:08;2.57;;;0.80;;
13443;SDS011;6794;59.218;18.218;2023-12-20T12:56:35;4.80;;;1.10;;
13443;SDS011;6794;59.218;18.218;2023-12-20T12:59:01;3.85;;;1.25;;
13443;SDS011;6794;59.218;18.218;2023-12-20T13:01:27;4.20;;;1.30;;
13443;SDS011;6794;59.218;18.218;2023-12-20T13:03:53;2.70;;;1.00;;
13443;SDS011;6794;59.218;18.218;2023-12-20T13:06:19;4.10;;;1.20;;
13443;SDS011;6794;59.218;18.218;2023-12-20T13:08:46;2.17;;;1.10;;
13443;SDS011;6794;59.218;18.218;2023-12-20T13:11:12;3.20;;;1.50;;
13443;SDS011;6794;59.218;18.218;2023-12-20T13:13:38;2.80;;;1.37;;
13443;SDS011;6794;59.218;18.218;2023-12-20T13:16:04;2.60;;;1.20;;
13443;SDS011;6794;59.218;18.218;2023-12-20T13:18:30;4.47;;;1.17;;
13443;SDS011;6794;59.218;18.218;2023-12-20T13:20:56;5.77;;;1.37;;
13443;SDS011;6794;59.218;18.218;2023-12-20T13:23:22;4.03;;;1.73;;
13443;SDS011;6794;59.218;18.218;2023-12-20T13:25:48;2.73;;;1.20;;
13443;SDS011;6794;59.218;18.218;2023-12-20T13:28:14;2.60;;;1.20;;
13443;SDS011;6794;59.218;18.218;2023-12-20T13:30:40;2.13;;;1.10;;
13443;SDS011;6794;59.218;18.218;2023-12-20T13:33:06;4.30;;;1.30;;
13443;SDS011;6794;59.218;18.218;2023-12-20T13:35:33;4.30;;;1.23;;
13443;SDS011;6794;59.218;18.218;2023-12-20T13:37:59;5.50;;;1.60;;
13443;SDS011;6794;59.218;18.218;2023-12-20T13:40:26;6.82;;;2.80;;
13443;SDS011;6794;59.218;18.218;2023-12-20T13:42:53;3.87;;;1.80;;
13443;SDS011;6794;59.218;18.218;2023-12-20T13:45:20;7.73;;;2.33;;
13443;SDS011;6794;59.218;18.218;2023-12-20T13:47:46;4.47;;;2.10;;
13443;SDS011;6794;59.218;18.218;2023-12-20T13:50:12;4.23;;;2.30;;
13443;SDS011;6794;59.218;18.218;2023-12-20T13:52:38;3.90;;;2.10;;
13443;SDS011;6794;59.218;18.218;2023-12-20T13:55:04;3.50;;;1.90;;
13443;SDS011;6794;59.218;18.218;2023-12-20T13:57:32;5.30;;;2.30;;
13443;SDS011;6794;59.218;18.218;2023-12-20T13:59:59;4.33;;;1.97;;
13443;SDS011;6794;59.218;18.218;2023-12-20T14:02:25;5.47;;;1.93;;
13443;SDS011;6794;59.218;18.218;2023-12-20T14:04:52;4.90;;;1.73;;
13443;SDS011;6794;59.218;18.218;2023-12-20T14:07:18;4.03;;;2.10;;
13443;SDS011;6794;59.218;18.218;2023-12-20T14:09:44;5.07;;;2.20;;
13443;SDS011;6794;59.218;18.218;2023-12-20T14:12:11;7.60;;;2.30;;
13443;SDS011;6794;59.218;18.218;2023-12-20T14:14:37;4.33;;;1.77;;
13443;SDS011;6794;59.218;18.218;2023-12-20T14:17:03;7.85;;;2.38;;
13443;SDS011;6794;59.218;18.218;2023-12-20T14:19:31;8.18;;;3.58;;
13443;SDS011;6794;59.218;18.218;2023-12-20T14:21:57;7.70;;;2.40;;
13443;SDS011;6794;59.218;18.218;2023-12-20T14:24:26;7.23;;;2.33;;
13443;SDS011;6794;59.218;18.218;2023-12-20T14:26:52;3.40;;;2.00;;
13443;SDS011;6794;59.218;18.218;2023-12-20T14:29:18;2.33;;;1.90;;
13443;SDS011;6794;59.218;18.218;2023-12-20T14:31:44;7.53;;;2.13;;
13443;SDS011;6794;59.218;18.218;2023-12-20T14:34:10;9.67;;;2.80;;
13443;SDS011;6794;59.218;18.218;2023-12-20T14:36:36;8.40;;;2.73;;